Date,TemperatureHighF,TemperatureAvgF,TemperatureLowF,DewpointHighF,DewpointAvgF,DewpointLowF,HumidityHigh,HumidityAvg,HumidityLow,PressureMaxIn,PressureMinIn,WindSpeedMaxMPH,WindSpeedAvgMPH,GustSpeedMaxMPH,PrecipitationSumIn
2013-3-1,41.4,38.6,35.2,36.0,31.2,28.0,90,75,63,29.67,29.52,7,2,10,0.00
2013-3-2,44.0,38.3,33.0,30.0,27.9,26.0,77,67,56,29.67,29.61,6,2,11,0.00
2013-3-3,43.2,36.4,33.0,33.0,29.2,25.0,91,75,64,29.64,29.55,6,2,10,0.00
2013-3-4,41.2,35.1,30.5,30.0,24.8,22.0,85,67,51,29.73,29.57,12,4,24,0.00
2013-3-5,46.3,37.7,31.7,34.0,28.4,23.0,88,70,53,30.06,29.74,8,2,12,0.00
2013-3-6,40.7,37.7,35.2,36.0,33.6,31.0,92,85,69,30.11,30.04,14,4,21,0.14
2013-3-7,36.6,32.5,30.7,32.0,30.6,30.0,96,92,76,30.06,29.98,8,4,14,0.11
2013-3-8,41.5,33.6,29.6,33.0,29.0,24.0,97,85,55,30.14,29.93,8,3,15,0.01
2013-3-9,46.4,36.8,28.7,32.0,27.1,22.0,94,69,53,30.35,30.14,6,2,9,0.16
2013-3-10,44.4,35.6,25.9,33.0,30.4,24.0,95,82,63,30.41,30.32,5,1,11,0.00
2013-3-11,54.9,43.7,35.9,41.0,37.0,33.0,92,78,59,30.33,30.15,7,2,10,0.00
2013-3-12,57.2,50.2,41.0,53.0,47.7,39.0,96,91,80,30.16,29.72,12,3,17,0.38
2013-3-13,52.8,45.6,37.9,52.0,31.3,20.0,96,61,31,29.78,29.69,9,3,16,0.00
2013-3-14,37.7,32.4,23.6,25.0,15.6,7.0,66,51,39,29.83,29.70,13,4,20,0.00
2013-3-15,41.8,30.9,20.3,28.0,12.6,4.0,72,49,24,29.87,29.63,12,4,20,0.00
2013-3-16,41.8,35.2,29.2,27.0,14.8,7.0,71,45,26,29.87,29.66,9,2,15,0.00
2013-3-17,38.6,31.7,24.2,19.0,10.5,4.0,68,43,24,30.32,29.87,11,2,16,0.00
2013-3-18,39.7,29.2,19.0,27.0,10.3,0.0,91,47,26,30.46,30.25,5,2,11,0.00
2013-3-19,36.0,32.7,28.8,35.0,31.6,27.0,97,95,91,30.24,29.60,14,2,18,0.91
2013-3-20,39.3,31.9,25.9,26.0,21.8,19.0,91,68,45,29.81,29.69,13,3,20,0.02
2013-3-21,38.5,32.0,26.1,30.0,23.1,17.0,92,71,47,29.82,29.61,4,1,7,0.03
2013-3-22,39.8,34.4,28.6,28.0,20.4,16.0,89,58,39,29.74,29.60,13,3,14,0.00
2013-3-23,44.1,36.3,29.1,24.0,20.1,17.0,74,54,34,29.78,29.63,13,5,21,0.00
2013-3-24,48.2,39.1,31.6,31.0,24.2,20.0,75,57,38,29.81,29.72,10,2,14,0.00
2013-3-25,46.9,38.7,31.7,35.0,30.9,27.0,84,74,59,29.77,29.52,9,2,16,0.00
2013-3-26,52.1,42.1,34.8,32.0,25.1,19.0,87,55,28,29.77,29.53,9,2,13,0.00
2013-3-27,53.6,43.7,31.8,33.0,24.6,22.0,71,49,30,29.86,29.73,11,3,14,0.00
2013-3-28,48.1,43.1,37.3,35.0,33.6,30.0,89,70,50,30.01,29.86,7,1,9,0.01
2013-3-29,58.7,48.6,36.7,35.0,32.8,29.0,82,56,36,30.04,29.95,7,2,12,0.00
2013-3-30,58.2,47.6,37.3,34.0,24.6,14.0,78,46,18,30.09,29.99,8,2,14,0.00
2013-3-31,61.4,47.2,30.0,41.0,27.4,21.0,78,51,21,30.12,29.75,12,2,18,0.01